Sedgwick Reserve, California Weather observations

Data are for 10 minute period ending at time listed.
 Day   Time   Solar   Ave.   Ave.  Ave.  Vector  Max.   Baro.   Total    
  of    of     Rad.   Air    Rel.  Wind   Wind   Wind  Press.  Precip.   
Year   Day            Temp.  Hum.  Speed  Dir.   Gust                    
2017   (PST)  Kw/m2    F      %     mph   deg.    mph    mb.     in.     
-------------------------------------------------------------------------
 144   19:00   0.00   55.6    81    6.9   278    12.1   967.5    0.00 
 144   19:10   0.00   54.9    83    7.0   286    13.3   967.5    0.00 
 144   19:20   0.00   54.4    84    7.1   283    13.2   967.5    0.00 
 144   19:30   0.00   54.1    85    5.3   286    10.2   967.6    0.00 
 144   19:40   0.00   53.9    85    4.3   287     7.7   967.6    0.00 
 144   19:50   0.00   53.8    86    3.6   304     7.5   967.6    0.00 
 144   20:00   0.00   53.5    86    2.1   260     4.9   967.7    0.00 
 144   20:10   0.00   53.2    86    1.5   222     2.9   967.8    0.00 
 144   20:20   0.00   52.8    87    0.5   102     1.3   967.8    0.00 
 144   20:30   0.00   52.4    87    0.6   107     1.2   967.8    0.00 
 144   20:40   0.00   52.8    87    0.2   161     1.1   967.9    0.00 
 144   20:50   0.00   53.2    86    0.0     0     0.0   968.0    0.00 
 144   21:00   0.00   53.5    86    1.3    33     2.9   968.1    0.00 
 144   21:10   0.00   53.5    86    2.2    26     3.6   968.1    0.00 
 144   21:20   0.00   53.7    86    2.6    67     5.2   968.1    0.00 
 144   21:30   0.00   53.7    86    3.3   114     5.8   968.0    0.00 
 144   21:40   0.00   53.4    86    3.1   154     4.8   968.0    0.00 
 144   21:50   0.00   53.0    86    2.3   186     3.9   967.9    0.00 
 144   22:00   0.00   52.4    87    1.4   231     2.9   968.0    0.00 
 144   22:10   0.00   51.4    88    3.2   249     4.2   968.0    0.00 
 144   22:20   0.00   51.2    88    2.7   320     4.4   968.1    0.00 
 144   22:30   0.00   49.2    90    4.7   359     6.1   968.1    0.00 
 144   22:40   0.00   49.3    92    2.4   342     6.0   968.1    0.00 
 144   22:50   0.00   49.2    92    1.2   303     2.9   968.0    0.00 
 144   23:00   0.00   48.5    91    1.4   342     2.9   967.9    0.00 
 144   23:10   0.00   48.5    92    1.3   265     2.2   967.9    0.00 
 144   23:20   0.00   49.2    92    0.5   302     2.0   967.9    0.00 
 144   23:30   0.00   49.5    91    0.4    30     1.2   968.0    0.00 
 144   23:40   0.00   50.1    91    0.7   196     1.6   968.0    0.00 
 144   23:50   0.00   50.8    90    0.1   322     0.8   968.0    0.00 
 145    0:00   0.00   51.4    89    0.3   318     1.2   968.0    0.00 
 145    0:10   0.00   52.0    88    0.8   224     2.5   967.9    0.00 
 145    0:20   0.00   52.6    87    0.4    66     1.1   968.0    0.00 
 145    0:30   0.00   52.6    87    0.6    27     1.5   968.0    0.00 
 145    0:40   0.00   53.1    87    0.7   284     2.3   968.1    0.00 
 145    0:50   0.00   53.3    87    0.3    15     1.8   968.1    0.00 
 145    1:00   0.00   53.4    87    0.7    34     2.2   968.1    0.00 
 145    1:10   0.00   53.5    86    1.2    61     2.6   968.1    0.00 
 145    1:20   0.00   53.4    86    1.1    47     3.1   968.2    0.00 
 145    1:30   0.00   53.6    86    0.9    52     2.5   968.2    0.00 
 145    1:40   0.00   53.7    86    1.7    59     3.3   968.2    0.00 
 145    1:50   0.00   53.6    86    1.6    50     3.5   968.2    0.00 
 145    2:00   0.00   53.7    86    1.8    68     3.5   968.2    0.00 
 145    2:10   0.00   53.7    86    2.0    88     3.4   968.2    0.00 
 145    2:20   0.00   53.6    86    1.8   133     3.2   968.2    0.00 
 145    2:30   0.00   53.4    86    3.3   152     5.0   968.1    0.00 
 145    2:40   0.00   53.0    87    3.3   150     4.5   968.1    0.00 
 145    2:50   0.00   53.0    87    2.5   135     3.6   968.1    0.00 
 145    3:00   0.00   53.0    88    2.3   131     3.7   968.2    0.00 
 145    3:10   0.00   52.9    88    2.6   141     4.3   968.2    0.00 
 145    3:20   0.00   52.8    89    3.1   136     6.2   968.1    0.00 
 145    3:30   0.00   52.7    89    2.5   133     4.5   968.1    0.00 
 145    3:40   0.00   52.8    89    1.6   118     4.4   968.1    0.00 
 145    3:50   0.00   52.9    88    1.7   103     3.2   968.0    0.00 
 145    4:00   0.00   53.1    88    2.4   136     5.5   968.0    0.00 
 145    4:10   0.00   53.2    86    3.5   126     6.9   968.0    0.00 
 145    4:20   0.00   53.3    86    4.7   108     9.1   968.0    0.00 
 145    4:30   0.00   53.4    85    4.1   126     7.7   968.0    0.00 
 145    4:40   0.00   53.6    84    4.2   111     8.8   968.0    0.00 
 145    4:50   0.00   53.6    85    4.2   116     7.2   968.1    0.00 
 145    5:00   0.00   53.7    85    3.8   145     6.6   968.1    0.00 
 145    5:10   0.00   53.5    85    3.9   147     7.2   968.1    0.00 
 145    5:20   0.00   53.3    86    5.3   123     7.6   968.2    0.00 
 145    5:30   0.00   53.3    87    4.4   118     8.3   968.2    0.00 
 145    5:40   0.01   53.3    86    5.8   121    11.2   968.1    0.00 
 145    5:50   0.01   53.3    86    6.1   126    11.1   968.1    0.00 
 145    6:00   0.02   53.4    85    6.3   124    10.8   968.2    0.00 
 145    6:10   0.03   53.6    85    6.1   112    10.6   968.2    0.00 
 145    6:20   0.03   53.8    84    4.8    98     7.5   968.3    0.00 
 145    6:30   0.04   54.0    82    5.6   134    11.5   968.3    0.00 
 145    6:40   0.04   54.2    81    7.8   132    12.1   968.4    0.00 
 145    6:50   0.04   54.2    80    9.2   144    15.1   968.5    0.00 
 145    7:00   0.05   54.2    80    8.2   136    13.2   968.7    0.00 
 145    7:10   0.06   54.4    80    7.4   119    12.9   968.8    0.00 
 145    7:20   0.07   54.7    79    6.6   121    12.5   968.7    0.00 
 145    7:30   0.08   54.9    78    8.0   113    14.5   968.9    0.00 
 145    7:40   0.08   55.2    77    6.3   112    11.0   968.9    0.00 
 145    7:50   0.09   55.7    76    6.6   122    12.1   969.1    0.00 
 145    8:00   0.13   56.2    75    6.9   113    13.5   969.1    0.00 
 145    8:10   0.19   56.6    73    8.3   117    14.3   969.1    0.00 
 145    8:20   0.19   57.0    72    8.2   110    13.4   969.1    0.00 
 145    8:30   0.20   57.3    71    7.9   115    14.1   969.1    0.00 
 145    8:40   0.20   57.3    72   10.3   118    15.9   969.2    0.00 
 145    8:50   0.19   57.0    72    9.9   128    16.7   969.2    0.00 
 145    9:00   0.19   56.8    74    8.6   143    13.5   969.2    0.00 
 145    9:10   0.23   57.4    73    7.5   132    14.9   969.2    0.00 
 145    9:20   0.25   58.1    71    7.9   120    13.7   969.2    0.00 
 145    9:30   0.23   58.1    71    8.0   132    13.5   969.2    0.00 
 145    9:40   0.25   58.0    71    7.7   126    12.5   969.2    0.00 
 145    9:50   0.23   57.9    72    9.4   149    17.0   969.2    0.00 
 145   10:00   0.21   57.5    72    8.1   137    13.2   969.4    0.00 
 145   10:10   0.20   58.3    71    6.4   133    12.1   969.4    0.00 
 145   10:20   0.21   58.6    70    7.1   114    11.5   969.5    0.00 
 145   10:30   0.23   58.6    69    6.7   107    11.8   969.6    0.00 
 145   10:40   0.24   59.1    68    7.0   120    14.2   969.7    0.00 
 145   10:50   0.27   58.8    68    9.2    95    14.8   969.6    0.00 
 145   11:00   0.28   59.2    68    8.5    82    14.3   969.6    0.00 
 145   11:10   0.34   59.6    66    8.6    88    15.7   969.7    0.00 
 145   11:20   0.53   61.4    64   10.0    70    16.1   969.7    0.00 
 145   11:30   0.53   62.2    62   10.0    72    15.6   969.6    0.00 
 145   11:40   0.46   61.4    63   11.9    77    17.2   969.5    0.00 
 145   11:50   0.47   61.0    64   10.6    77    16.7   969.6    0.00 
 145   12:00   0.89   62.6    61   11.5    78    16.9   969.5    0.00 
 145   12:10   0.55   62.3    62   10.9    86    16.3   969.4    0.00 
 145   12:20   0.62   62.7    61   11.1    81    16.9   969.4    0.00 
 145   12:30   0.67   62.6    61   10.9    81    17.8   969.3    0.00 
 145   12:40   0.75   62.7    61   11.9    82    18.4   969.2    0.00 
 145   12:50   0.71   64.1    58   12.0    76    18.7   969.1    0.00 
 145   13:00   0.79   63.5    59   13.5    80    19.2   969.0    0.00 
 145   13:10   0.68   63.4    59   12.3    84    19.4   968.9    0.00 
 145   13:20   0.79   64.1    58    9.2    82    16.4   968.9    0.00 
 145   13:30   0.81   64.1    58   10.0    97    16.6   968.9    0.00 
 145   13:40   0.52   64.0    58    8.3    89    16.7   968.9    0.00 
 145   13:50   0.83   66.1    54    8.8    77    18.3   968.8    0.00 
 145   14:00   0.67   66.0    54    8.3    83    14.2   968.7    0.00 
 145   14:10   0.69   65.9    54    8.0    82    17.5   968.6    0.00 
 145   14:20   0.73   66.4    54    7.8    80    15.4   968.5    0.00 
 145   14:30   0.75   66.2    54    7.1    89    11.7   968.4    0.00 
 145   14:40   0.71   65.5    55    6.4    94    13.2   968.2    0.00 
 145   14:50   0.50   65.9    54    6.1    84    12.3   968.1    0.00 
 145   15:00   0.62   66.0    54    5.1    97    12.4   968.1    0.00 
 145   15:10   0.63   66.8    52    4.7   137    10.8   968.0    0.00 
 145   15:20   0.59   66.0    54    5.7   143    11.4   968.0    0.00 
 145   15:30   0.57   66.9    52    4.0   126     9.8   967.9    0.00 
 145   15:40   0.54   67.0    52    5.7   152    10.9   967.8    0.00 
 145   15:50   0.51   66.8    52    6.3   148    12.7   967.7    0.00 
 145   16:00   0.48   67.3    51    5.2   181     9.1   967.7    0.00 
 145   16:10   0.45   67.5    51    7.4   162    11.8   967.6    0.00 
 145   16:20   0.41   67.9    50    5.0   178    11.2   967.5    0.00 
 145   16:30   0.38   67.6    51    6.3   198    12.0   967.5    0.00 
 145   16:40   0.35   66.7    52    7.0   203    13.5   967.5    0.00 
 145   16:50   0.31   65.0    55    8.3   216    15.6   967.5    0.00 
 145   17:00   0.28   64.7    55    7.9   227    14.5   967.7    0.00 
 145   17:10   0.24   64.2    56    7.8   217    13.2   967.7    0.00 
 145   17:20   0.22   64.0    57    7.9   204    13.6   967.7    0.00 
 145   17:30   0.13   62.8    58    8.0   219    11.7   967.8    0.00 
 145   17:40   0.11   61.8    60    7.9   239    12.3   967.9    0.00 
 145   17:50   0.09   61.3    61    7.0   247    10.4   968.1    0.00 
 145   18:00   0.07   61.0    62    6.7   239    11.0   968.2    0.00 
 145   18:10   0.06   60.5    62    5.7   221     9.8   968.2    0.00 
 145   18:20   0.04   60.2    63    5.0   229     8.5   968.3    0.00 
 145   18:30   0.02   60.1    64    4.3   229     7.4   968.5    0.00 
 145   18:40   0.01   59.8    64    4.2   241     7.8   968.7    0.00 
 145   18:50   0.01   59.2    66    6.2   221     9.9   968.9    0.00 

Return to Sedgwick Reserve graphs page.


Western Regional Climate Center,wrcc@dri.edu